sensor_id;sensor_type;location;lat;lon;timestamp;P1;durP1;ratioP1;P2;durP2;ratioP2
2438;SDS011;14509;47.992;7.848;2022-10-17T00:00:45;9.33;;;2.20;;
2438;SDS011;14509;47.992;7.848;2022-10-17T00:02:47;2.10;;;1.90;;
2438;SDS011;14509;47.992;7.848;2022-10-17T00:04:49;2.50;;;2.03;;
2438;SDS011;14509;47.992;7.848;2022-10-17T00:06:51;3.43;;;1.80;;
2438;SDS011;14509;47.992;7.848;2022-10-17T00:08:52;5.20;;;2.07;;
2438;SDS011;14509;47.992;7.848;2022-10-17T00:10:55;4.10;;;2.60;;
2438;SDS011;14509;47.992;7.848;2022-10-17T00:12:58;2.27;;;1.97;;
2438;SDS011;14509;47.992;7.848;2022-10-17T00:15:03;2.47;;;1.77;;
2438;SDS011;14509;47.992;7.848;2022-10-17T00:17:05;8.67;;;2.70;;
2438;SDS011;14509;47.992;7.848;2022-10-17T00:19:07;3.30;;;3.00;;
2438;SDS011;14509;47.992;7.848;2022-10-17T00:21:13;2.20;;;1.93;;
2438;SDS011;14509;47.992;7.848;2022-10-17T00:23:16;8.67;;;3.07;;
2438;SDS011;14509;47.992;7.848;2022-10-17T00:25:18;2.87;;;2.60;;
2438;SDS011;14509;47.992;7.848;2022-10-17T00:27:20;2.90;;;2.03;;
2438;SDS011;14509;47.992;7.848;2022-10-17T00:29:22;2.33;;;2.13;;
2438;SDS011;14509;47.992;7.848;2022-10-17T00:31:25;7.90;;;2.80;;
2438;SDS011;14509;47.992;7.848;2022-10-17T00:33:27;2.47;;;2.23;;
2438;SDS011;14509;47.992;7.848;2022-10-17T00:35:30;3.90;;;2.07;;
2438;SDS011;14509;47.992;7.848;2022-10-17T00:37:32;3.27;;;2.40;;
2438;SDS011;14509;47.992;7.848;2022-10-17T00:39:35;2.90;;;2.40;;
2438;SDS011;14509;47.992;7.848;2022-10-17T00:41:37;3.37;;;2.07;;
2438;SDS011;14509;47.992;7.848;2022-10-17T00:43:49;9.70;;;2.63;;
2438;SDS011;14509;47.992;7.848;2022-10-17T00:45:52;5.77;;;2.10;;
2438;SDS011;14509;47.992;7.848;2022-10-17T00:47:57;2.80;;;1.83;;
2438;SDS011;14509;47.992;7.848;2022-10-17T00:50:04;2.87;;;2.30;;
2438;SDS011;14509;47.992;7.848;2022-10-17T00:52:08;2.97;;;2.50;;
2438;SDS011;14509;47.992;7.848;2022-10-17T00:54:15;2.83;;;2.63;;
2438;SDS011;14509;47.992;7.848;2022-10-17T00:56:19;5.80;;;2.50;;
2438;SDS011;14509;47.992;7.848;2022-10-17T00:58:21;3.57;;;2.20;;
2438;SDS011;14509;47.992;7.848;2022-10-17T01:00:23;2.73;;;2.10;;
2438;SDS011;14509;47.992;7.848;2022-10-17T01:02:25;2.60;;;2.40;;
2438;SDS011;14509;47.992;7.848;2022-10-17T01:04:29;7.93;;;2.40;;
2438;SDS011;14509;47.992;7.848;2022-10-17T01:06:31;5.60;;;2.40;;
2438;SDS011;14509;47.992;7.848;2022-10-17T01:08:33;3.37;;;2.67;;
2438;SDS011;14509;47.992;7.848;2022-10-17T01:10:38;2.53;;;1.80;;
2438;SDS011;14509;47.992;7.848;2022-10-17T01:12:51;2.20;;;1.97;;
2438;SDS011;14509;47.992;7.848;2022-10-17T01:15:04;6.43;;;2.60;;
2438;SDS011;14509;47.992;7.848;2022-10-17T01:17:12;2.30;;;2.10;;
2438;SDS011;14509;47.992;7.848;2022-10-17T01:21:49;3.90;;;2.00;;
2438;SDS011;14509;47.992;7.848;2022-10-17T01:26:51;5.53;;;2.30;;
2438;SDS011;14509;47.992;7.848;2022-10-17T01:29:05;2.13;;;1.93;;
2438;SDS011;14509;47.992;7.848;2022-10-17T01:31:20;3.43;;;2.03;;
2438;SDS011;14509;47.992;7.848;2022-10-17T01:33:27;2.33;;;2.13;;
2438;SDS011;14509;47.992;7.848;2022-10-17T01:35:36;3.53;;;2.50;;
2438;SDS011;14509;47.992;7.848;2022-10-17T01:37:43;4.03;;;2.37;;
2438;SDS011;14509;47.992;7.848;2022-10-17T01:39:49;5.73;;;2.00;;
2438;SDS011;14509;47.992;7.848;2022-10-17T01:41:55;3.70;;;1.87;;
2438;SDS011;14509;47.992;7.848;2022-10-17T01:44:02;2.53;;;2.33;;
2438;SDS011;14509;47.992;7.848;2022-10-17T01:46:10;11.57;;;2.57;;
2438;SDS011;14509;47.992;7.848;2022-10-17T01:48:19;1.90;;;1.70;;
2438;SDS011;14509;47.992;7.848;2022-10-17T01:50:27;5.73;;;2.60;;
2438;SDS011;14509;47.992;7.848;2022-10-17T01:52:36;3.33;;;2.10;;
2438;SDS011;14509;47.992;7.848;2022-10-17T01:54:43;2.50;;;2.30;;
2438;SDS011;14509;47.992;7.848;2022-10-17T01:56:48;3.30;;;2.37;;
2438;SDS011;14509;47.992;7.848;2022-10-17T01:58:56;4.07;;;2.83;;
2438;SDS011;14509;47.992;7.848;2022-10-17T02:01:04;3.47;;;2.40;;
2438;SDS011;14509;47.992;7.848;2022-10-17T02:03:08;2.30;;;2.10;;
2438;SDS011;14509;47.992;7.848;2022-10-17T02:05:19;10.83;;;2.77;;
2438;SDS011;14509;47.992;7.848;2022-10-17T02:07:24;6.60;;;2.40;;
2438;SDS011;14509;47.992;7.848;2022-10-17T02:09:26;7.03;;;2.63;;
2438;SDS011;14509;47.992;7.848;2022-10-17T02:11:30;4.03;;;2.27;;
2438;SDS011;14509;47.992;7.848;2022-10-17T02:13:35;4.00;;;1.97;;
2438;SDS011;14509;47.992;7.848;2022-10-17T02:15:53;9.43;;;2.37;;
2438;SDS011;14509;47.992;7.848;2022-10-17T02:18:19;4.07;;;2.40;;
2438;SDS011;14509;47.992;7.848;2022-10-17T02:20:34;4.53;;;2.40;;
2438;SDS011;14509;47.992;7.848;2022-10-17T02:22:42;5.70;;;2.47;;
2438;SDS011;14509;47.992;7.848;2022-10-17T02:24:51;9.13;;;2.50;;
2438;SDS011;14509;47.992;7.848;2022-10-17T02:27:00;10.30;;;2.87;;
2438;SDS011;14509;47.992;7.848;2022-10-17T02:29:07;3.43;;;2.40;;
2438;SDS011;14509;47.992;7.848;2022-10-17T02:31:14;4.07;;;2.30;;
2438;SDS011;14509;47.992;7.848;2022-10-17T02:33:20;13.30;;;4.20;;
2438;SDS011;14509;47.992;7.848;2022-10-17T02:35:30;3.20;;;2.60;;
2438;SDS011;14509;47.992;7.848;2022-10-17T02:37:36;2.83;;;2.50;;
2438;SDS011;14509;47.992;7.848;2022-10-17T02:39:39;4.77;;;2.37;;
2438;SDS011;14509;47.992;7.848;2022-10-17T02:41:45;3.10;;;1.93;;
2438;SDS011;14509;47.992;7.848;2022-10-17T02:43:48;3.97;;;2.40;;
2438;SDS011;14509;47.992;7.848;2022-10-17T02:45:51;7.40;;;2.30;;
2438;SDS011;14509;47.992;7.848;2022-10-17T02:47:54;4.57;;;2.60;;
2438;SDS011;14509;47.992;7.848;2022-10-17T02:50:03;3.63;;;2.30;;
2438;SDS011;14509;47.992;7.848;2022-10-17T02:52:07;6.40;;;2.50;;
2438;SDS011;14509;47.992;7.848;2022-10-17T02:54:15;4.27;;;1.80;;
2438;SDS011;14509;47.992;7.848;2022-10-17T02:56:22;2.57;;;2.13;;
2438;SDS011;14509;47.992;7.848;2022-10-17T02:58:27;1.77;;;1.60;;
2438;SDS011;14509;47.992;7.848;2022-10-17T03:00:34;6.10;;;2.83;;
2438;SDS011;14509;47.992;7.848;2022-10-17T03:02:39;6.33;;;2.33;;
2438;SDS011;14509;47.992;7.848;2022-10-17T03:04:43;9.73;;;2.10;;
2438;SDS011;14509;47.992;7.848;2022-10-17T03:06:46;3.70;;;2.83;;
2438;SDS011;14509;47.992;7.848;2022-10-17T03:08:48;3.53;;;1.80;;
2438;SDS011;14509;47.992;7.848;2022-10-17T03:10:52;2.17;;;1.83;;
2438;SDS011;14509;47.992;7.848;2022-10-17T03:12:55;6.00;;;2.90;;
2438;SDS011;14509;47.992;7.848;2022-10-17T03:14:58;4.43;;;2.90;;
2438;SDS011;14509;47.992;7.848;2022-10-17T03:17:02;3.40;;;2.30;;
2438;SDS011;14509;47.992;7.848;2022-10-17T03:19:04;4.47;;;2.40;;
2438;SDS011;14509;47.992;7.848;2022-10-17T03:21:07;3.23;;;2.10;;
2438;SDS011;14509;47.992;7.848;2022-10-17T03:23:09;2.00;;;1.70;;
2438;SDS011;14509;47.992;7.848;2022-10-17T03:25:11;3.73;;;2.13;;
2438;SDS011;14509;47.992;7.848;2022-10-17T03:27:14;9.87;;;2.63;;
2438;SDS011;14509;47.992;7.848;2022-10-17T03:29:18;7.20;;;2.33;;
2438;SDS011;14509;47.992;7.848;2022-10-17T03:31:21;3.90;;;2.03;;
2438;SDS011;14509;47.992;7.848;2022-10-17T03:33:24;4.70;;;2.60;;
2438;SDS011;14509;47.992;7.848;2022-10-17T03:35:26;9.77;;;3.00;;
2438;SDS011;14509;47.992;7.848;2022-10-17T03:37:29;4.17;;;2.07;;
2438;SDS011;14509;47.992;7.848;2022-10-17T03:39:32;4.20;;;2.60;;
2438;SDS011;14509;47.992;7.848;2022-10-17T03:41:34;7.90;;;2.73;;
2438;SDS011;14509;47.992;7.848;2022-10-17T03:43:38;5.23;;;2.37;;
2438;SDS011;14509;47.992;7.848;2022-10-17T03:45:41;2.23;;;1.93;;
2438;SDS011;14509;47.992;7.848;2022-10-17T03:47:44;5.27;;;2.30;;
2438;SDS011;14509;47.992;7.848;2022-10-17T03:49:46;3.20;;;2.00;;
2438;SDS011;14509;47.992;7.848;2022-10-17T03:51:49;3.97;;;2.00;;
2438;SDS011;14509;47.992;7.848;2022-10-17T03:53:52;3.10;;;2.80;;
2438;SDS011;14509;47.992;7.848;2022-10-17T03:55:55;2.97;;;2.10;;
2438;SDS011;14509;47.992;7.848;2022-10-17T03:57:57;8.03;;;2.27;;
2438;SDS011;14509;47.992;7.848;2022-10-17T04:00:01;2.60;;;2.30;;
2438;SDS011;14509;47.992;7.848;2022-10-17T04:02:14;2.60;;;2.10;;
2438;SDS011;14509;47.992;7.848;2022-10-17T04:04:17;3.83;;;2.10;;
2438;SDS011;14509;47.992;7.848;2022-10-17T04:06:19;2.70;;;2.10;;
2438;SDS011;14509;47.992;7.848;2022-10-17T04:08:22;11.63;;;2.53;;
2438;SDS011;14509;47.992;7.848;2022-10-17T04:10:44;2.27;;;2.07;;
2438;SDS011;14509;47.992;7.848;2022-10-17T04:12:46;3.57;;;2.60;;
2438;SDS011;14509;47.992;7.848;2022-10-17T04:14:48;5.00;;;1.90;;
2438;SDS011;14509;47.992;7.848;2022-10-17T04:16:52;2.70;;;2.10;;
2438;SDS011;14509;47.992;7.848;2022-10-17T04:18:56;3.43;;;2.33;;
2438;SDS011;14509;47.992;7.848;2022-10-17T04:21:01;8.07;;;3.03;;
2438;SDS011;14509;47.992;7.848;2022-10-17T04:23:04;3.10;;;2.60;;
2438;SDS011;14509;47.992;7.848;2022-10-17T04:25:07;2.53;;;2.20;;
2438;SDS011;14509;47.992;7.848;2022-10-17T04:27:13;2.30;;;2.10;;
2438;SDS011;14509;47.992;7.848;2022-10-17T04:29:18;4.13;;;2.50;;
2438;SDS011;14509;47.992;7.848;2022-10-17T04:31:23;3.67;;;2.60;;
2438;SDS011;14509;47.992;7.848;2022-10-17T04:33:48;3.90;;;2.17;;
2438;SDS011;14509;47.992;7.848;2022-10-17T04:35:54;2.83;;;2.47;;
2438;SDS011;14509;47.992;7.848;2022-10-17T04:37:57;5.40;;;2.33;;
2438;SDS011;14509;47.992;7.848;2022-10-17T04:39:59;2.77;;;2.03;;
2438;SDS011;14509;47.992;7.848;2022-10-17T04:42:05;2.97;;;2.00;;
2438;SDS011;14509;47.992;7.848;2022-10-17T04:44:08;2.63;;;2.40;;
2438;SDS011;14509;47.992;7.848;2022-10-17T04:46:14;4.33;;;2.50;;
2438;SDS011;14509;47.992;7.848;2022-10-17T04:48:19;5.60;;;2.60;;
2438;SDS011;14509;47.992;7.848;2022-10-17T04:50:22;4.73;;;2.53;;
2438;SDS011;14509;47.992;7.848;2022-10-17T04:52:44;7.70;;;2.47;;
2438;SDS011;14509;47.992;7.848;2022-10-17T04:54:46;2.73;;;2.53;;
2438;SDS011;14509;47.992;7.848;2022-10-17T04:56:48;2.20;;;2.00;;
2438;SDS011;14509;47.992;7.848;2022-10-17T04:58:50;3.33;;;2.07;;
2438;SDS011;14509;47.992;7.848;2022-10-17T05:00:53;15.33;;;2.80;;
2438;SDS011;14509;47.992;7.848;2022-10-17T05:02:59;4.77;;;2.20;;
2438;SDS011;14509;47.992;7.848;2022-10-17T05:05:03;4.63;;;2.93;;
2438;SDS011;14509;47.992;7.848;2022-10-17T05:07:07;5.30;;;2.20;;
2438;SDS011;14509;47.992;7.848;2022-10-17T05:09:35;3.80;;;2.70;;
2438;SDS011;14509;47.992;7.848;2022-10-17T05:11:37;4.90;;;2.60;;
2438;SDS011;14509;47.992;7.848;2022-10-17T05:13:39;2.80;;;2.60;;
2438;SDS011;14509;47.992;7.848;2022-10-17T05:15:41;4.20;;;2.77;;
2438;SDS011;14509;47.992;7.848;2022-10-17T05:17:45;6.63;;;3.20;;
2438;SDS011;14509;47.992;7.848;2022-10-17T05:19:47;5.83;;;3.00;;
2438;SDS011;14509;47.992;7.848;2022-10-17T05:21:49;10.57;;;3.03;;
2438;SDS011;14509;47.992;7.848;2022-10-17T05:23:52;3.17;;;2.67;;
2438;SDS011;14509;47.992;7.848;2022-10-17T05:25:55;6.73;;;2.57;;
2438;SDS011;14509;47.992;7.848;2022-10-17T05:27:57;2.97;;;2.67;;
2438;SDS011;14509;47.992;7.848;2022-10-17T05:30:02;7.70;;;2.50;;
2438;SDS011;14509;47.992;7.848;2022-10-17T05:32:07;3.43;;;2.73;;
2438;SDS011;14509;47.992;7.848;2022-10-17T05:34:09;4.33;;;2.53;;
2438;SDS011;14509;47.992;7.848;2022-10-17T05:36:11;2.83;;;2.50;;
2438;SDS011;14509;47.992;7.848;2022-10-17T05:38:14;3.60;;;2.20;;
2438;SDS011;14509;47.992;7.848;2022-10-17T05:40:19;3.90;;;2.73;;
2438;SDS011;14509;47.992;7.848;2022-10-17T05:42:24;8.77;;;2.87;;
2438;SDS011;14509;47.992;7.848;2022-10-17T05:44:26;5.90;;;1.97;;
2438;SDS011;14509;47.992;7.848;2022-10-17T05:46:32;4.00;;;2.83;;
2438;SDS011;14509;47.992;7.848;2022-10-17T05:48:34;4.20;;;3.17;;
2438;SDS011;14509;47.992;7.848;2022-10-17T05:50:37;3.87;;;2.30;;
2438;SDS011;14509;47.992;7.848;2022-10-17T05:52:45;3.20;;;2.47;;
2438;SDS011;14509;47.992;7.848;2022-10-17T05:54:49;5.20;;;2.47;;
2438;SDS011;14509;47.992;7.848;2022-10-17T05:56:52;13.43;;;3.50;;
2438;SDS011;14509;47.992;7.848;2022-10-17T05:58:59;4.20;;;3.30;;
2438;SDS011;14509;47.992;7.848;2022-10-17T06:01:21;4.17;;;2.93;;
2438;SDS011;14509;47.992;7.848;2022-10-17T06:03:25;3.60;;;3.10;;
2438;SDS011;14509;47.992;7.848;2022-10-17T06:05:27;5.83;;;3.20;;
2438;SDS011;14509;47.992;7.848;2022-10-17T06:07:30;4.83;;;2.97;;
2438;SDS011;14509;47.992;7.848;2022-10-17T06:09:32;3.20;;;2.90;;
2438;SDS011;14509;47.992;7.848;2022-10-17T06:11:35;3.97;;;2.00;;
2438;SDS011;14509;47.992;7.848;2022-10-17T06:13:40;5.77;;;3.10;;
2438;SDS011;14509;47.992;7.848;2022-10-17T06:15:51;4.80;;;2.57;;
2438;SDS011;14509;47.992;7.848;2022-10-17T06:17:53;2.87;;;2.47;;
2438;SDS011;14509;47.992;7.848;2022-10-17T06:19:56;2.70;;;2.50;;
2438;SDS011;14509;47.992;7.848;2022-10-17T06:21:58;3.43;;;2.40;;
2438;SDS011;14509;47.992;7.848;2022-10-17T06:24:02;5.53;;;2.90;;
2438;SDS011;14509;47.992;7.848;2022-10-17T06:26:15;6.03;;;2.40;;
2438;SDS011;14509;47.992;7.848;2022-10-17T06:28:17;4.23;;;2.63;;
2438;SDS011;14509;47.992;7.848;2022-10-17T06:30:20;5.37;;;3.10;;
2438;SDS011;14509;47.992;7.848;2022-10-17T06:32:23;6.33;;;3.57;;
2438;SDS011;14509;47.992;7.848;2022-10-17T06:34:25;6.40;;;2.90;;
2438;SDS011;14509;47.992;7.848;2022-10-17T06:36:27;5.30;;;2.20;;
2438;SDS011;14509;47.992;7.848;2022-10-17T06:38:29;3.03;;;2.73;;
2438;SDS011;14509;47.992;7.848;2022-10-17T06:40:33;6.53;;;5.90;;
2438;SDS011;14509;47.992;7.848;2022-10-17T06:42:35;11.43;;;3.50;;
2438;SDS011;14509;47.992;7.848;2022-10-17T06:44:55;3.47;;;3.03;;
2438;SDS011;14509;47.992;7.848;2022-10-17T06:47:16;8.67;;;3.27;;
2438;SDS011;14509;47.992;7.848;2022-10-17T06:49:18;4.00;;;3.10;;
2438;SDS011;14509;47.992;7.848;2022-10-17T06:51:25;4.50;;;2.63;;
2438;SDS011;14509;47.992;7.848;2022-10-17T06:53:31;4.37;;;2.33;;
2438;SDS011;14509;47.992;7.848;2022-10-17T06:55:44;4.33;;;2.93;;
2438;SDS011;14509;47.992;7.848;2022-10-17T06:57:58;7.60;;;2.75;;
2438;SDS011;14509;47.992;7.848;2022-10-17T07:00:29;8.23;;;3.13;;
2438;SDS011;14509;47.992;7.848;2022-10-17T07:02:33;2.63;;;2.43;;
2438;SDS011;14509;47.992;7.848;2022-10-17T07:04:35;5.83;;;2.30;;
2438;SDS011;14509;47.992;7.848;2022-10-17T07:06:37;5.27;;;2.60;;
2438;SDS011;14509;47.992;7.848;2022-10-17T07:08:46;2.47;;;2.27;;
2438;SDS011;14509;47.992;7.848;2022-10-17T07:10:51;2.77;;;2.37;;
2438;SDS011;14509;47.992;7.848;2022-10-17T07:12:53;3.50;;;2.17;;
2438;SDS011;14509;47.992;7.848;2022-10-17T07:14:55;3.90;;;2.20;;
2438;SDS011;14509;47.992;7.848;2022-10-17T07:17:28;5.20;;;2.67;;
2438;SDS011;14509;47.992;7.848;2022-10-17T07:19:44;4.47;;;2.17;;
2438;SDS011;14509;47.992;7.848;2022-10-17T07:21:59;4.50;;;2.37;;
2438;SDS011;14509;47.992;7.848;2022-10-17T07:24:11;3.87;;;2.60;;
2438;SDS011;14509;47.992;7.848;2022-10-17T07:26:17;3.80;;;2.23;;
2438;SDS011;14509;47.992;7.848;2022-10-17T07:28:41;5.00;;;2.80;;
2438;SDS011;14509;47.992;7.848;2022-10-17T07:31:28;3.13;;;2.23;;
2438;SDS011;14509;47.992;7.848;2022-10-17T07:33:47;3.47;;;2.83;;
2438;SDS011;14509;47.992;7.848;2022-10-17T07:35:56;2.33;;;2.10;;
2438;SDS011;14509;47.992;7.848;2022-10-17T07:37:59;4.50;;;2.23;;
2438;SDS011;14509;47.992;7.848;2022-10-17T07:40:01;3.30;;;2.60;;
2438;SDS011;14509;47.992;7.848;2022-10-17T07:42:03;2.43;;;2.23;;
2438;SDS011;14509;47.992;7.848;2022-10-17T07:44:06;3.33;;;1.90;;
2438;SDS011;14509;47.992;7.848;2022-10-17T07:46:14;6.10;;;3.47;;
2438;SDS011;14509;47.992;7.848;2022-10-17T07:48:18;3.23;;;1.80;;
2438;SDS011;14509;47.992;7.848;2022-10-17T07:50:20;5.03;;;2.13;;
2438;SDS011;14509;47.992;7.848;2022-10-17T07:52:24;2.57;;;2.17;;
2438;SDS011;14509;47.992;7.848;2022-10-17T07:54:25;2.90;;;2.07;;
2438;SDS011;14509;47.992;7.848;2022-10-17T07:56:27;6.23;;;3.17;;
2438;SDS011;14509;47.992;7.848;2022-10-17T07:58:29;7.10;;;2.50;;
2438;SDS011;14509;47.992;7.848;2022-10-17T08:00:31;1.93;;;1.83;;
2438;SDS011;14509;47.992;7.848;2022-10-17T08:02:33;2.77;;;2.40;;
2438;SDS011;14509;47.992;7.848;2022-10-17T08:04:35;2.87;;;2.57;;
2438;SDS011;14509;47.992;7.848;2022-10-17T08:06:38;3.93;;;2.23;;
2438;SDS011;14509;47.992;7.848;2022-10-17T08:08:41;4.87;;;1.80;;
2438;SDS011;14509;47.992;7.848;2022-10-17T08:10:44;3.00;;;1.93;;
2438;SDS011;14509;47.992;7.848;2022-10-17T08:12:45;3.27;;;1.97;;
2438;SDS011;14509;47.992;7.848;2022-10-17T08:14:47;3.80;;;2.20;;
2438;SDS011;14509;47.992;7.848;2022-10-17T08:16:49;3.30;;;1.90;;
2438;SDS011;14509;47.992;7.848;2022-10-17T08:18:54;3.90;;;2.00;;
2438;SDS011;14509;47.992;7.848;2022-10-17T08:20:57;2.10;;;1.90;;
2438;SDS011;14509;47.992;7.848;2022-10-17T08:23:00;6.00;;;2.23;;
2438;SDS011;14509;47.992;7.848;2022-10-17T08:25:03;2.60;;;1.70;;
2438;SDS011;14509;47.992;7.848;2022-10-17T08:27:06;5.90;;;1.90;;
2438;SDS011;14509;47.992;7.848;2022-10-17T08:29:11;2.47;;;2.23;;
2438;SDS011;14509;47.992;7.848;2022-10-17T08:31:14;5.27;;;2.27;;
2438;SDS011;14509;47.992;7.848;2022-10-17T08:33:18;4.70;;;2.47;;
2438;SDS011;14509;47.992;7.848;2022-10-17T08:35:20;5.13;;;2.10;;
2438;SDS011;14509;47.992;7.848;2022-10-17T08:37:22;6.10;;;2.47;;
2438;SDS011;14509;47.992;7.848;2022-10-17T08:39:24;2.90;;;2.20;;
2438;SDS011;14509;47.992;7.848;2022-10-17T08:41:37;4.67;;;2.60;;
2438;SDS011;14509;47.992;7.848;2022-10-17T08:43:53;5.50;;;2.30;;
2438;SDS011;14509;47.992;7.848;2022-10-17T08:46:17;3.37;;;2.07;;
2438;SDS011;14509;47.992;7.848;2022-10-17T08:48:21;2.43;;;2.00;;
2438;SDS011;14509;47.992;7.848;2022-10-17T08:50:28;2.53;;;1.93;;
2438;SDS011;14509;47.992;7.848;2022-10-17T08:52:35;2.33;;;2.13;;
2438;SDS011;14509;47.992;7.848;2022-10-17T08:54:42;5.10;;;2.13;;
2438;SDS011;14509;47.992;7.848;2022-10-17T08:56:48;3.80;;;1.90;;
2438;SDS011;14509;47.992;7.848;2022-10-17T08:58:51;3.17;;;1.97;;
2438;SDS011;14509;47.992;7.848;2022-10-17T09:00:56;3.33;;;2.17;;
2438;SDS011;14509;47.992;7.848;2022-10-17T09:03:07;2.37;;;1.83;;
2438;SDS011;14509;47.992;7.848;2022-10-17T09:05:26;2.70;;;1.80;;
2438;SDS011;14509;47.992;7.848;2022-10-17T09:07:35;7.10;;;1.67;;
2438;SDS011;14509;47.992;7.848;2022-10-17T09:09:45;2.87;;;1.87;;
2438;SDS011;14509;47.992;7.848;2022-10-17T09:12:03;3.30;;;1.77;;
2438;SDS011;14509;47.992;7.848;2022-10-17T09:14:19;2.43;;;1.73;;
2438;SDS011;14509;47.992;7.848;2022-10-17T09:16:51;2.40;;;1.93;;
2438;SDS011;14509;47.992;7.848;2022-10-17T09:19:00;1.70;;;1.37;;
2438;SDS011;14509;47.992;7.848;2022-10-17T09:21:11;2.37;;;2.17;;
2438;SDS011;14509;47.992;7.848;2022-10-17T09:23:20;3.17;;;2.60;;
2438;SDS011;14509;47.992;7.848;2022-10-17T09:25:24;4.83;;;2.37;;
2438;SDS011;14509;47.992;7.848;2022-10-17T09:27:32;4.50;;;3.20;;
2438;SDS011;14509;47.992;7.848;2022-10-17T09:29:40;6.77;;;2.87;;
2438;SDS011;14509;47.992;7.848;2022-10-17T09:31:48;4.33;;;3.00;;
2438;SDS011;14509;47.992;7.848;2022-10-17T09:33:56;5.17;;;2.97;;
2438;SDS011;14509;47.992;7.848;2022-10-17T09:36:03;5.43;;;3.07;;
2438;SDS011;14509;47.992;7.848;2022-10-17T09:38:15;5.30;;;2.73;;
2438;SDS011;14509;47.992;7.848;2022-10-17T09:40:24;3.83;;;2.40;;
2438;SDS011;14509;47.992;7.848;2022-10-17T09:42:29;6.20;;;3.33;;
2438;SDS011;14509;47.992;7.848;2022-10-17T09:44:33;4.97;;;4.20;;
2438;SDS011;14509;47.992;7.848;2022-10-17T09:46:37;7.50;;;3.43;;
2438;SDS011;14509;47.992;7.848;2022-10-17T09:48:41;4.97;;;3.43;;
2438;SDS011;14509;47.992;7.848;2022-10-17T09:50:46;2.93;;;2.60;;
2438;SDS011;14509;47.992;7.848;2022-10-17T09:52:49;3.83;;;3.17;;
2438;SDS011;14509;47.992;7.848;2022-10-17T09:54:53;3.80;;;2.90;;
2438;SDS011;14509;47.992;7.848;2022-10-17T09:57:00;5.53;;;3.40;;
2438;SDS011;14509;47.992;7.848;2022-10-17T09:59:05;9.80;;;3.53;;
2438;SDS011;14509;47.992;7.848;2022-10-17T10:01:21;5.77;;;4.63;;
2438;SDS011;14509;47.992;7.848;2022-10-17T10:03:25;7.10;;;3.20;;
2438;SDS011;14509;47.992;7.848;2022-10-17T10:05:27;7.10;;;3.47;;
2438;SDS011;14509;47.992;7.848;2022-10-17T10:07:30;3.67;;;3.30;;
2438;SDS011;14509;47.992;7.848;2022-10-17T10:09:33;8.70;;;5.30;;
2438;SDS011;14509;47.992;7.848;2022-10-17T10:11:44;6.00;;;3.73;;
2438;SDS011;14509;47.992;7.848;2022-10-17T10:13:48;6.53;;;3.60;;
2438;SDS011;14509;47.992;7.848;2022-10-17T10:15:50;9.37;;;3.60;;
2438;SDS011;14509;47.992;7.848;2022-10-17T10:17:54;5.60;;;3.20;;
2438;SDS011;14509;47.992;7.848;2022-10-17T10:19:56;3.50;;;3.20;;
2438;SDS011;14509;47.992;7.848;2022-10-17T10:21:59;4.13;;;3.17;;
2438;SDS011;14509;47.992;7.848;2022-10-17T10:24:04;9.47;;;3.03;;
2438;SDS011;14509;47.992;7.848;2022-10-17T10:26:19;3.60;;;3.30;;
2438;SDS011;14509;47.992;7.848;2022-10-17T10:28:25;3.30;;;2.90;;
2438;SDS011;14509;47.992;7.848;2022-10-17T10:30:29;3.10;;;2.90;;
2438;SDS011;14509;47.992;7.848;2022-10-17T10:32:33;12.27;;;3.30;;
2438;SDS011;14509;47.992;7.848;2022-10-17T10:34:43;8.07;;;3.10;;
2438;SDS011;14509;47.992;7.848;2022-10-17T10:36:49;4.97;;;2.80;;
2438;SDS011;14509;47.992;7.848;2022-10-17T10:38:55;3.30;;;2.50;;
2438;SDS011;14509;47.992;7.848;2022-10-17T10:41:00;2.60;;;2.40;;
2438;SDS011;14509;47.992;7.848;2022-10-17T10:43:04;5.33;;;3.00;;
2438;SDS011;14509;47.992;7.848;2022-10-17T10:45:14;5.03;;;2.13;;
2438;SDS011;14509;47.992;7.848;2022-10-17T10:47:19;3.40;;;3.10;;
2438;SDS011;14509;47.992;7.848;2022-10-17T10:49:27;7.33;;;2.80;;
2438;SDS011;14509;47.992;7.848;2022-10-17T10:51:33;2.43;;;2.23;;
2438;SDS011;14509;47.992;7.848;2022-10-17T10:53:41;3.70;;;2.80;;
2438;SDS011;14509;47.992;7.848;2022-10-17T10:55:48;4.37;;;2.37;;
2438;SDS011;14509;47.992;7.848;2022-10-17T10:57:54;3.60;;;2.00;;
2438;SDS011;14509;47.992;7.848;2022-10-17T11:00:03;8.70;;;2.47;;
2438;SDS011;14509;47.992;7.848;2022-10-17T11:02:13;4.77;;;2.23;;
2438;SDS011;14509;47.992;7.848;2022-10-17T11:04:22;3.27;;;1.87;;
2438;SDS011;14509;47.992;7.848;2022-10-17T11:06:29;2.97;;;2.33;;
2438;SDS011;14509;47.992;7.848;2022-10-17T11:08:37;5.90;;;2.57;;
2438;SDS011;14509;47.992;7.848;2022-10-17T11:10:55;5.17;;;2.57;;
2438;SDS011;14509;47.992;7.848;2022-10-17T11:13:03;2.70;;;2.23;;
2438;SDS011;14509;47.992;7.848;2022-10-17T11:15:14;2.70;;;1.97;;
2438;SDS011;14509;47.992;7.848;2022-10-17T11:17:23;4.60;;;2.10;;
2438;SDS011;14509;47.992;7.848;2022-10-17T11:19:34;3.00;;;1.93;;
2438;SDS011;14509;47.992;7.848;2022-10-17T11:21:42;3.10;;;1.70;;
2438;SDS011;14509;47.992;7.848;2022-10-17T11:23:50;3.10;;;1.53;;
2438;SDS011;14509;47.992;7.848;2022-10-17T11:26:01;3.93;;;1.40;;
2438;SDS011;14509;47.992;7.848;2022-10-17T11:28:12;3.47;;;2.10;;
2438;SDS011;14509;47.992;7.848;2022-10-17T11:30:16;5.20;;;1.70;;
2438;SDS011;14509;47.992;7.848;2022-10-17T11:32:19;2.00;;;1.90;;
2438;SDS011;14509;47.992;7.848;2022-10-17T11:34:26;2.30;;;1.70;;
2438;SDS011;14509;47.992;7.848;2022-10-17T11:36:34;6.10;;;1.77;;
2438;SDS011;14509;47.992;7.848;2022-10-17T11:38:41;3.50;;;1.40;;
2438;SDS011;14509;47.992;7.848;2022-10-17T11:40:49;1.80;;;1.37;;
2438;SDS011;14509;47.992;7.848;2022-10-17T11:42:54;2.33;;;1.27;;
2438;SDS011;14509;47.992;7.848;2022-10-17T11:45:01;2.73;;;1.53;;
2438;SDS011;14509;47.992;7.848;2022-10-17T11:47:25;2.20;;;1.40;;
2438;SDS011;14509;47.992;7.848;2022-10-17T11:49:32;4.40;;;1.60;;
2438;SDS011;14509;47.992;7.848;2022-10-17T11:51:39;3.20;;;1.50;;
2438;SDS011;14509;47.992;7.848;2022-10-17T11:53:48;1.90;;;1.57;;
2438;SDS011;14509;47.992;7.848;2022-10-17T11:55:56;1.83;;;1.20;;
2438;SDS011;14509;47.992;7.848;2022-10-17T11:58:12;1.60;;;1.47;;
2438;SDS011;14509;47.992;7.848;2022-10-17T12:00:30;2.80;;;1.47;;
2438;SDS011;14509;47.992;7.848;2022-10-17T12:02:40;2.27;;;1.23;;
2438;SDS011;14509;47.992;7.848;2022-10-17T12:04:59;3.70;;;1.33;;
2438;SDS011;14509;47.992;7.848;2022-10-17T12:07:07;2.10;;;1.33;;
2438;SDS011;14509;47.992;7.848;2022-10-17T12:09:17;2.40;;;1.40;;
2438;SDS011;14509;47.992;7.848;2022-10-17T12:11:28;3.40;;;2.07;;
2438;SDS011;14509;47.992;7.848;2022-10-17T12:15:56;2.20;;;1.57;;
2438;SDS011;14509;47.992;7.848;2022-10-17T12:18:18;1.63;;;1.23;;
2438;SDS011;14509;47.992;7.848;2022-10-17T12:20:28;1.33;;;1.10;;
2438;SDS011;14509;47.992;7.848;2022-10-17T12:22:32;1.70;;;1.53;;
2438;SDS011;14509;47.992;7.848;2022-10-17T12:24:37;2.30;;;1.40;;
2438;SDS011;14509;47.992;7.848;2022-10-17T12:26:42;4.07;;;1.33;;
2438;SDS011;14509;47.992;7.848;2022-10-17T12:28:44;1.50;;;1.30;;
2438;SDS011;14509;47.992;7.848;2022-10-17T12:30:48;1.40;;;1.20;;
2438;SDS011;14509;47.992;7.848;2022-10-17T12:32:53;2.20;;;1.00;;
2438;SDS011;14509;47.992;7.848;2022-10-17T12:34:57;4.50;;;2.53;;
2438;SDS011;14509;47.992;7.848;2022-10-17T12:36:59;1.23;;;1.03;;
2438;SDS011;14509;47.992;7.848;2022-10-17T12:41:53;4.10;;;1.20;;
2438;SDS011;14509;47.992;7.848;2022-10-17T12:43:55;2.47;;;1.83;;
2438;SDS011;14509;47.992;7.848;2022-10-17T12:45:57;1.93;;;1.73;;
2438;SDS011;14509;47.992;7.848;2022-10-17T12:47:59;1.53;;;1.07;;
2438;SDS011;14509;47.992;7.848;2022-10-17T12:50:01;2.13;;;1.30;;
2438;SDS011;14509;47.992;7.848;2022-10-17T12:54:23;10.30;;;1.27;;
2438;SDS011;14509;47.992;7.848;2022-10-17T12:56:29;2.23;;;1.17;;
2438;SDS011;14509;47.992;7.848;2022-10-17T12:58:45;2.87;;;1.57;;
2438;SDS011;14509;47.992;7.848;2022-10-17T13:00:50;4.07;;;1.50;;
2438;SDS011;14509;47.992;7.848;2022-10-17T13:03:01;2.77;;;1.50;;
2438;SDS011;14509;47.992;7.848;2022-10-17T13:05:20;3.20;;;1.60;;